Time;durP1;ratioP1;P1;durP2;ratioP2;P2;SDS_P1;SDS_P2;PMS_P1;PMS_P2;Temp;Humidity;BMP_temperature;BMP_pressure;BME280_temperature;BME280_humidity;BME280_pressure;Samples;Min_cycle;Max_cycle;Signal;HPM_P1;HPM_P2
2023/01/03 00:01:35;;;;;;;17.80;7.60;;;15.60;64.50;;;;;;6240988;28;20059;-73
2023/01/03 00:04:36;;;;;;;20.75;7.35;;;15.60;64.60;;;;;;6219788;28;20056;-73
2023/01/03 00:07:37;;;;;;;16.60;6.97;;;15.60;64.70;;;;;;6239755;28;20490;-73
2023/01/03 00:10:38;;;;;;;11.43;6.63;;;15.60;64.80;;;;;;6237477;28;20091;-72
2023/01/03 00:13:40;;;;;;;16.52;6.22;;;15.60;64.90;;;;;;6242297;28;20374;-74
2023/01/03 00:16:41;;;;;;;12.55;5.43;;;15.60;65.10;;;;;;6239920;28;20037;-73
2023/01/03 00:19:43;;;;;;;19.25;5.70;;;15.60;65.20;;;;;;6219645;28;20104;-72
2023/01/03 00:22:44;;;;;;;13.13;5.65;;;15.50;65.30;;;;;;6215981;28;20040;-73
2023/01/03 00:25:45;;;;;;;14.60;5.88;;;15.50;65.60;;;;;;6216729;28;20034;-73
2023/01/03 00:28:46;;;;;;;12.93;5.88;;;15.50;65.80;;;;;;6218874;28;20045;-73
2023/01/03 00:31:47;;;;;;;16.38;5.85;;;15.40;65.90;;;;;;6215456;28;20117;-73
2023/01/03 00:34:48;;;;;;;14.93;5.85;;;15.40;66.10;;;;;;6213438;28;22246;-71
2023/01/03 00:37:49;;;;;;;15.40;6.03;;;15.40;66.20;;;;;;6211879;28;20053;-73
2023/01/03 00:40:50;;;;;;;21.70;7.00;;;15.40;66.20;;;;;;6224926;28;20072;-73
2023/01/03 00:43:51;;;;;;;22.25;6.28;;;15.40;66.30;;;;;;6239392;28;20052;-72
2023/01/03 00:46:51;;;;;;;21.88;6.30;;;15.50;66.30;;;;;;6238055;28;20368;-71
2023/01/03 00:49:52;;;;;;;23.15;6.10;;;15.40;66.30;;;;;;6227498;28;20030;-73
2023/01/03 00:52:53;;;;;;;20.35;6.10;;;15.50;66.40;;;;;;6198071;28;20539;-72
2023/01/03 00:55:54;;;;;;;17.10;6.35;;;15.50;66.50;;;;;;6216987;28;20049;-73
2023/01/03 00:58:56;;;;;;;15.00;6.55;;;15.50;66.40;;;;;;6212774;28;20046;-73
2023/01/03 01:01:57;;;;;;;16.75;5.85;;;15.50;66.50;;;;;;6213882;28;20111;-73
2023/01/03 01:04:58;;;;;;;25.80;8.55;;;15.50;66.60;;;;;;6210766;28;20033;-72
2023/01/03 01:07:59;;;;;;;17.90;7.82;;;15.50;66.60;;;;;;6213947;28;20574;-74
2023/01/03 01:11:03;;;;;;;16.17;6.53;;;15.50;66.50;;;;;;6214604;28;20117;-72
2023/01/03 01:14:18;;;;;;;18.17;7.25;;;15.50;66.50;;;;;;6229976;28;20756;-72
2023/01/03 01:17:19;;;;;;;15.32;7.43;;;15.50;66.40;;;;;;6199245;28;20620;-73
2023/01/03 01:20:20;;;;;;;27.95;7.18;;;15.50;66.30;;;;;;6237214;28;20034;-73
2023/01/03 01:23:21;;;;;;;33.10;7.95;;;15.60;66.40;;;;;;6211131;28;20042;-73
2023/01/03 01:26:23;;;;;;;16.33;7.10;;;15.60;66.40;;;;;;6212188;28;20069;-72
2023/01/03 01:29:25;;;;;;;19.00;6.60;;;15.60;66.40;;;;;;6232004;28;20044;-72
2023/01/03 01:32:25;;;;;;;16.00;6.93;;;15.60;66.50;;;;;;6236172;28;20041;-72
2023/01/03 01:35:26;;;;;;;21.88;6.95;;;15.60;66.50;;;;;;6221789;28;20046;-73
2023/01/03 01:38:28;;;;;;;13.57;7.53;;;15.60;66.50;;;;;;6237458;28;20425;-72
2023/01/03 01:45:24;;;;;;;21.05;8.77;;;15.60;66.40;;;;;;6235680;28;20040;-73
2023/01/03 01:48:25;;;;;;;21.50;7.63;;;15.60;66.40;;;;;;6143358;28;20035;-72
2023/01/03 01:51:32;;;;;;;22.48;8.38;;;15.60;66.30;;;;;;6178612;28;20046;-73
2023/01/03 01:54:33;;;;;;;15.75;7.10;;;15.60;66.40;;;;;;6173612;28;20034;-73
2023/01/03 01:57:36;;;;;;;26.10;7.63;;;15.60;66.40;;;;;;6155338;28;20100;-72
2023/01/03 02:00:38;;;;;;;16.65;7.15;;;15.60;66.50;;;;;;6171859;28;20046;-72
2023/01/03 02:03:41;;;;;;;17.67;7.45;;;15.60;66.60;;;;;;6184195;28;20540;-73
2023/01/03 02:06:42;;;;;;;20.45;7.45;;;15.60;66.70;;;;;;6157230;28;20022;-72
2023/01/03 02:09:45;;;;;;;13.70;6.75;;;15.50;66.80;;;;;;6156118;28;20035;-71
2023/01/03 02:16:15;;;;;;;19.52;6.55;;;15.50;67.00;;;;;;6184977;28;20149;-72
2023/01/03 02:19:40;;;;;;;21.77;6.38;;;15.50;67.10;;;;;;6176852;28;20041;-72
2023/01/03 02:23:05;;;;;;;16.45;6.60;;;15.50;67.00;;;;;;6198163;28;20490;-72
2023/01/03 02:26:35;;;;;;;11.10;5.55;;;15.50;67.00;;;;;;6242032;28;20034;-73
2023/01/03 02:30:22;;;;;;;11.02;5.32;;;15.50;67.00;;;;;;6231308;28;20040;-73
2023/01/03 02:33:40;;;;;;;10.77;5.15;;;15.50;66.90;;;;;;6210193;28;20134;-74
2023/01/03 02:37:10;;;;;;;11.32;4.65;;;15.40;66.80;;;;;;6237945;28;20068;-73
2023/01/03 02:40:24;;;;;;;13.07;4.70;;;15.40;66.90;;;;;;6215634;28;20426;-73
2023/01/03 02:43:37;;;;;;;7.50;4.05;;;15.40;66.90;;;;;;6231174;28;20118;-73
2023/01/03 02:47:05;;;;;;;12.25;4.30;;;15.40;66.80;;;;;;6240063;28;20042;-74
2023/01/03 02:50:10;;;;;;;6.45;3.20;;;15.40;66.80;;;;;;6222102;28;20061;-72
2023/01/03 02:53:16;;;;;;;7.32;3.85;;;15.40;66.70;;;;;;6238784;28;20030;-72
2023/01/03 02:56:23;;;;;;;9.95;3.38;;;15.30;66.70;;;;;;6200073;28;20064;-73
2023/01/03 02:59:55;;;;;;;7.30;3.65;;;15.30;66.80;;;;;;6195019;28;20064;-72
2023/01/03 03:03:02;;;;;;;8.05;3.30;;;15.20;66.80;;;;;;6211509;28;20022;-72
2023/01/03 03:06:28;;;;;;;9.98;3.67;;;15.30;66.80;;;;;;6232596;28;20049;-73
2023/01/03 03:09:29;;;;;;;7.05;3.05;;;15.20;66.70;;;;;;6235408;28;20112;-72
2023/01/03 03:16:00;;;;;;;5.63;2.63;;;15.10;66.90;;;;;;6240225;28;20129;-73
2023/01/03 03:19:03;;;;;;;5.15;2.40;;;15.10;66.90;;;;;;6241044;28;20054;-73
2023/01/03 03:25:33;;;;;;;6.20;1.88;;;15.10;66.70;;;;;;6212600;28;20071;-73
2023/01/03 03:28:37;;;;;;;5.68;2.08;;;15.10;66.50;;;;;;6213684;28;20096;-72
2023/01/03 03:31:49;;;;;;;3.88;1.50;;;15.00;66.40;;;;;;6212652;28;20038;-72
2023/01/03 03:34:52;;;;;;;4.63;2.15;;;15.00;66.50;;;;;;6196104;28;20097;-72
2023/01/03 03:37:57;;;;;;;7.18;1.73;;;15.00;66.40;;;;;;6213203;28;20048;-72
2023/01/03 03:45:00;;;;;;;8.73;1.80;;;14.90;66.40;;;;;;6233065;28;20037;-73
2023/01/03 03:48:23;;;;;;;2.60;1.40;;;14.80;66.40;;;;;;6210133;28;20084;-72
2023/01/03 03:51:29;;;;;;;2.97;1.80;;;14.80;66.50;;;;;;6195594;28;20635;-72
2023/01/03 03:54:34;;;;;;;5.60;1.80;;;14.80;66.50;;;;;;6233177;28;20048;-73
2023/01/03 03:57:42;;;;;;;2.47;1.50;;;14.80;66.50;;;;;;6238479;28;20045;-74
2023/01/03 04:00:45;;;;;;;;;;;14.80;66.40;;;;;;6242846;28;20065;-72
2023/01/03 04:03:48;;;;;;;8.45;1.80;;;14.80;66.50;;;;;;6240905;28;19995;-72
2023/01/03 04:06:50;;;;;;;4.75;1.70;;;14.80;66.40;;;;;;6245028;28;20042;-72
2023/01/03 04:09:51;;;;;;;7.20;1.60;;;14.80;66.50;;;;;;6240662;28;20120;-72
2023/01/03 04:12:53;;;;;;;4.10;1.50;;;14.70;66.40;;;;;;6225504;28;20052;-72
2023/01/03 04:15:54;;;;;;;3.33;1.77;;;14.80;66.60;;;;;;6240672;28;20037;-72
2023/01/03 04:18:55;;;;;;;8.10;1.77;;;14.80;66.50;;;;;;6224500;28;20501;-74
2023/01/03 04:21:56;;;;;;;3.38;1.60;;;14.80;66.50;;;;;;6239311;28;20410;-73
2023/01/03 04:24:56;;;;;;;1.75;1.40;;;14.80;66.50;;;;;;6240426;28;20041;-73
2023/01/03 04:27:57;;;;;;;2.15;1.35;;;14.80;66.70;;;;;;6239713;28;20029;-74
2023/01/03 04:30:58;;;;;;;15.48;1.75;;;14.80;66.60;;;;;;6243286;28;20421;-73
2023/01/03 04:33:59;;;;;;;2.97;1.73;;;14.70;66.70;;;;;;6221210;28;20071;-72
2023/01/03 04:37:00;;;;;;;5.05;1.40;;;14.60;66.80;;;;;;6217411;28;20128;-72
2023/01/03 04:40:00;;;;;;;2.10;1.20;;;14.60;67.80;;;;;;6212967;28;20042;-71
2023/01/03 04:46:22;;;;;;;2.65;1.35;;;14.50;67.20;;;;;;6242124;28;20038;-71
2023/01/03 04:49:23;;;;;;;2.72;1.77;;;14.50;67.30;;;;;;6246797;28;20033;-72
2023/01/03 04:52:23;;;;;;;3.03;1.55;;;14.40;67.40;;;;;;6243964;28;20029;-72
2023/01/03 04:55:24;;;;;;;3.88;1.50;;;14.40;67.60;;;;;;6241473;28;20073;-73
2023/01/03 04:58:25;;;;;;;4.53;1.40;;;14.30;67.70;;;;;;6242853;28;20041;-72
2023/01/03 05:01:27;;;;;;;3.03;1.55;;;14.30;67.80;;;;;;6245004;28;20362;-72
2023/01/03 05:04:28;;;;;;;8.98;2.08;;;14.30;67.90;;;;;;6238572;28;20037;-72
2023/01/03 05:07:29;;;;;;;4.90;1.83;;;14.30;68.00;;;;;;6242480;28;20041;-73
2023/01/03 05:10:31;;;;;;;3.28;2.03;;;14.30;68.00;;;;;;6238763;28;20037;-73
2023/01/03 05:13:33;;;;;;;5.05;2.10;;;14.30;68.20;;;;;;6243589;28;20033;-71
2023/01/03 05:16:34;;;;;;;4.65;1.85;;;14.40;68.30;;;;;;6238283;28;20378;-73
2023/01/03 05:25:48;;;;;;;7.00;2.45;;;14.40;68.30;;;;;;6234600;28;20029;-72
2023/01/03 05:26:18;;;;;;;3.25;2.25;;;14.40;68.30;;;;;;6216483;28;20463;-72
2023/01/03 05:29:20;;;;;;;3.47;1.83;;;14.40;68.30;;;;;;6209944;28;20034;-73
2023/01/03 05:32:23;;;;;;;4.97;2.05;;;14.50;68.40;;;;;;6229667;28;20053;-73
2023/01/03 05:35:24;;;;;;;4.78;2.03;;;14.40;68.40;;;;;;6234501;28;20037;-73
2023/01/03 05:38:25;;;;;;;3.00;1.80;;;14.50;68.50;;;;;;6235332;28;20446;-73
2023/01/03 05:44:45;;;;;;;3.30;1.67;;;14.50;68.30;;;;;;6235511;28;20034;-71
2023/01/03 05:47:46;;;;;;;2.67;1.70;;;14.50;68.20;;;;;;6235721;28;20117;-73
2023/01/03 05:50:48;;;;;;;2.58;1.60;;;14.50;68.00;;;;;;6234824;28;20036;-73
2023/01/03 05:53:49;;;;;;;2.90;1.98;;;14.60;68.00;;;;;;6237897;28;20048;-73
2023/01/03 05:56:50;;;;;;;8.55;2.20;;;14.60;67.80;;;;;;6237911;28;20033;-72
2023/01/03 05:59:51;;;;;;;3.28;2.15;;;14.60;67.80;;;;;;6253698;28;20045;-72
2023/01/03 06:02:52;;;;;;;4.25;2.38;;;14.70;67.70;;;;;;6234781;28;20055;-74
2023/01/03 06:05:53;;;;;;;5.97;2.88;;;14.70;67.70;;;;;;6238275;28;20061;-73
2023/01/03 06:08:53;;;;;;;9.05;3.28;;;14.70;67.60;;;;;;6238088;28;20034;-73
2023/01/03 06:11:54;;;;;;;5.93;3.15;;;14.80;67.50;;;;;;6238701;28;20045;-73
2023/01/03 06:14:55;;;;;;;4.00;2.55;;;14.80;67.50;;;;;;6238482;28;20030;-73
2023/01/03 06:17:58;;;;;;;3.47;2.30;;;14.80;67.60;;;;;;6245090;28;20046;-71
2023/01/03 06:21:01;;;;;;;9.32;3.03;;;14.80;67.60;;;;;;6246896;28;20041;-73
2023/01/03 06:24:02;;;;;;;9.35;4.05;;;14.80;67.60;;;;;;6229556;28;20044;-73
2023/01/03 06:27:03;;;;;;;7.10;3.83;;;14.80;67.70;;;;;;6246476;28;20466;-74
2023/01/03 06:30:05;;;;;;;10.48;4.82;;;14.80;67.70;;;;;;6243779;28;20053;-73
2023/01/03 06:33:06;;;;;;;12.13;5.57;;;14.90;67.70;;;;;;6237006;28;20072;-73
2023/01/03 06:36:12;;;;;;;8.82;4.55;;;14.90;67.70;;;;;;6236729;28;20037;-72
2023/01/03 06:39:13;;;;;;;9.32;4.75;;;14.90;67.70;;;;;;6240005;28;20063;-73
2023/01/03 06:55:34;;;;;;;10.60;3.83;;;14.90;67.60;;;;;;6241955;28;20048;-72
2023/01/03 06:58:35;;;;;;;8.98;3.80;;;14.80;67.60;;;;;;6235884;28;20050;-72
2023/01/03 07:01:37;;;;;;;4.80;2.83;;;14.80;67.90;;;;;;6234071;28;20038;-73
2023/01/03 07:04:38;;;;;;;5.43;2.83;;;14.70;67.90;;;;;;6227324;28;20073;-74
2023/01/03 07:07:39;;;;;;;12.55;2.78;;;14.70;68.10;;;;;;6236911;28;20450;-73
2023/01/03 07:10:40;;;;;;;5.28;2.75;;;14.60;68.00;;;;;;6215649;28;20038;-73
2023/01/03 07:13:59;;;;;;;3.95;2.40;;;14.60;68.10;;;;;;6232713;28;20143;-74
2023/01/03 07:17:00;;;;;;;5.80;2.10;;;14.50;68.10;;;;;;6211868;28;20041;-72
2023/01/03 07:20:01;;;;;;;11.25;2.50;;;14.60;68.20;;;;;;6238298;28;20165;-73
2023/01/03 07:23:03;;;;;;;4.85;2.58;;;14.50;68.00;;;;;;6230398;28;20143;-72
2023/01/03 07:26:04;;;;;;;4.95;3.10;;;14.60;68.20;;;;;;6238751;28;20049;-73
2023/01/03 07:29:07;;;;;;;5.82;2.97;;;14.60;68.20;;;;;;6242844;28;20044;-73
2023/01/03 07:32:08;;;;;;;5.45;3.08;;;14.60;68.10;;;;;;6242782;28;20037;-72
2023/01/03 07:35:09;;;;;;;9.18;3.13;;;14.60;67.80;;;;;;6241946;28;20040;-74
2023/01/03 07:38:12;;;;;;;6.25;3.15;;;14.70;67.80;;;;;;6218094;28;20052;-72
2023/01/03 07:41:14;;;;;;;5.82;3.03;;;14.60;67.70;;;;;;6218885;28;20042;-73
2023/01/03 07:44:15;;;;;;;7.32;3.22;;;14.60;67.70;;;;;;6216694;28;20038;-72
2023/01/03 07:47:16;;;;;;;6.93;3.55;;;14.70;67.60;;;;;;6213548;28;20045;-73
2023/01/03 07:50:17;;;;;;;12.98;4.57;;;14.70;67.60;;;;;;6210788;28;20038;-73
2023/01/03 07:53:17;;;;;;;10.30;4.80;;;14.70;67.50;;;;;;6199592;28;20384;-72
2023/01/03 07:56:20;;;;;;;11.35;4.65;;;14.80;67.50;;;;;;6231177;28;20037;-72
2023/01/03 07:59:21;;;;;;;15.10;6.88;;;14.80;67.50;;;;;;6240656;28;20041;-74
2023/01/03 08:02:22;;;;;;;11.57;5.88;;;14.80;67.60;;;;;;6237590;28;20526;-74
2023/01/03 08:05:24;;;;;;;14.70;6.63;;;14.90;67.70;;;;;;6231771;28;20541;-74
2023/01/03 08:08:25;;;;;;;15.23;7.55;;;14.90;67.70;;;;;;6225847;28;20038;-73
2023/01/03 08:14:45;;;;;;;10.90;4.38;;;14.90;67.70;;;;;;6241785;28;20386;-73
2023/01/03 08:17:46;;;;;;;6.60;3.67;;;14.90;67.70;;;;;;6244070;28;20052;-74
2023/01/03 08:20:47;;;;;;;8.20;2.90;;;14.90;67.50;;;;;;6245699;28;20056;-74
2023/01/03 08:23:48;;;;;;;9.20;4.03;;;14.90;67.50;;;;;;6251577;28;20382;-73
2023/01/03 08:26:49;;;;;;;7.28;4.10;;;14.90;67.50;;;;;;6235809;28;20033;-73
2023/01/03 08:29:50;;;;;;;9.15;3.75;;;14.90;67.30;;;;;;6259157;28;20466;-74
2023/01/03 08:32:52;;;;;;;10.68;3.38;;;14.90;67.30;;;;;;6237321;28;20510;-74
2023/01/03 08:36:01;;;;;;;5.68;3.70;;;14.90;67.50;;;;;;6219195;28;20026;-73
2023/01/03 08:39:06;;;;;;;4.97;3.15;;;14.90;67.40;;;;;;6205728;28;20111;-72
2023/01/03 08:42:08;;;;;;;11.45;4.30;;;14.90;67.20;;;;;;6243229;28;20466;-73
2023/01/03 08:45:13;;;;;;;6.50;3.05;;;14.90;67.10;;;;;;6228177;28;20056;-73
2023/01/03 08:48:17;;;;;;;6.47;3.85;;;14.90;67.10;;;;;;6245742;28;20041;-74
2023/01/03 08:51:18;;;;;;;10.63;4.05;;;14.80;67.20;;;;;;6242634;28;20037;-74
2023/01/03 08:54:19;;;;;;;7.68;3.75;;;14.80;67.20;;;;;;6236744;28;20172;-73
2023/01/03 08:57:20;;;;;;;12.10;3.85;;;14.80;67.30;;;;;;6225396;28;20049;-73
2023/01/03 09:00:21;;;;;;;5.28;3.38;;;14.70;67.30;;;;;;6240115;28;20498;-74
2023/01/03 09:03:22;;;;;;;7.28;4.45;;;14.70;67.30;;;;;;6230225;28;20037;-73
2023/01/03 09:06:23;;;;;;;7.13;3.88;;;14.70;67.40;;;;;;6217041;28;20038;-73
2023/01/03 09:09:24;;;;;;;9.23;4.90;;;14.70;67.40;;;;;;6217973;28;20041;-73
2023/01/03 09:12:26;;;;;;;8.35;3.78;;;14.70;67.50;;;;;;6231422;28;20432;-73
2023/01/03 09:15:27;;;;;;;6.95;3.90;;;14.70;67.40;;;;;;6243156;28;20042;-74
2023/01/03 09:18:28;;;;;;;7.40;3.95;;;14.80;67.40;;;;;;6219145;28;20081;-74
2023/01/03 09:21:29;;;;;;;7.57;4.53;;;14.80;67.30;;;;;;6238515;28;20049;-73
2023/01/03 09:24:30;;;;;;;7.57;3.80;;;14.70;67.00;;;;;;6242106;28;20053;-73
2023/01/03 09:27:31;;;;;;;8.13;4.47;;;14.70;67.00;;;;;;6193164;28;20038;-73
2023/01/03 09:30:32;;;;;;;10.52;4.13;;;14.70;67.00;;;;;;6201831;28;20044;-74
2023/01/03 09:33:33;;;;;;;11.05;4.45;;;14.70;67.00;;;;;;6218549;28;20125;-73
2023/01/03 09:36:37;;;;;;;13.27;5.15;;;14.80;67.00;;;;;;6219870;28;20045;-73
2023/01/03 09:39:39;;;;;;;19.40;4.70;;;14.80;66.90;;;;;;6219590;28;20026;-72
2023/01/03 09:46:00;;;;;;;9.68;4.70;;;14.90;66.60;;;;;;6209778;28;20478;-74
2023/01/03 09:49:04;;;;;;;9.50;4.30;;;15.00;66.50;;;;;;6202620;28;20033;-74
2023/01/03 10:06:40;;;;;;;11.95;4.43;;;15.30;65.60;;;;;;6193420;28;20049;-73
2023/01/03 10:09:55;;;;;;;8.77;4.20;;;15.40;65.10;;;;;;6195443;28;20231;-72
2023/01/03 10:13:33;;;;;;;8.27;4.07;;;15.40;64.80;;;;;;6172304;28;20125;-74
2023/01/03 10:17:33;;;;;;;8.00;4.05;;;15.40;64.80;;;;;;6175352;28;20042;-74
2023/01/03 10:20:55;;;;;;;8.57;3.95;;;15.40;64.80;;;;;;6030419;29;20037;-73
2023/01/03 10:23:55;;;;;;;11.07;4.78;;;15.50;64.30;;;;;;6029160;29;20056;-72
2023/01/03 10:27:16;;;;;;;11.20;5.22;;;15.50;64.20;;;;;;6023835;29;20490;-73
2023/01/03 10:30:22;;;;;;;15.80;4.72;;;15.50;64.00;;;;;;6026419;29;20048;-75
2023/01/03 10:33:32;;;;;;;10.13;5.10;;;15.50;63.90;;;;;;6035853;29;20503;-73
2023/01/03 10:36:33;;;;;;;11.02;4.72;;;15.50;63.80;;;;;;6066452;29;20044;-73
2023/01/03 10:39:33;;;;;;;13.98;4.65;;;15.60;63.90;;;;;;6072994;29;20501;-73
2023/01/03 10:42:36;;;;;;;13.60;4.70;;;15.60;63.80;;;;;;6088157;29;20052;-72
2023/01/03 10:45:50;;;;;;;10.13;4.38;;;15.60;64.40;;;;;;6081402;29;20043;-74
2023/01/03 10:48:53;;;;;;;10.00;4.68;;;15.70;63.50;;;;;;6072017;29;20076;-73
2023/01/03 10:52:09;;;;;;;8.63;4.60;;;15.70;63.40;;;;;;6088301;29;20100;-72
2023/01/03 10:55:15;;;;;;;10.95;4.97;;;15.80;63.30;;;;;;6123534;28;20032;-73
2023/01/03 10:58:23;;;;;;;10.20;4.47;;;15.80;63.00;;;;;;6216875;28;20037;-73
2023/01/03 11:01:24;;;;;;;;;;;15.70;62.90;;;;;;6235489;28;20069;-73
2023/01/03 11:04:26;;;;;;;7.65;4.03;;;15.60;63.00;;;;;;6255603;28;19917;-73
2023/01/03 11:07:27;;;;;;;10.23;3.72;;;15.60;63.00;;;;;;6242651;28;20143;-74
2023/01/03 11:10:38;;;;;;;8.23;4.05;;;15.60;63.10;;;;;;6240883;28;20045;-73
2023/01/03 11:13:42;;;;;;;8.68;3.97;;;15.60;63.10;;;;;;6237935;28;20037;-73
2023/01/03 11:16:42;;;;;;;9.38;4.43;;;15.60;62.90;;;;;;6241859;28;20061;-74
2023/01/03 11:19:44;;;;;;;9.82;4.40;;;15.60;62.90;;;;;;6238064;28;20340;-74
2023/01/03 11:22:53;;;;;;;7.57;3.60;;;15.60;62.90;;;;;;6255166;28;20037;-74
2023/01/03 11:26:26;;;;;;;9.10;4.47;;;15.60;62.90;;;;;;6237157;28;20720;-73
2023/01/03 11:30:05;;;;;;;8.32;4.55;;;15.70;62.80;;;;;;6215888;28;20077;-74
2023/01/03 11:33:33;;;;;;;10.27;4.65;;;15.80;62.60;;;;;;6147010;28;20023;-74
2023/01/03 11:37:04;;;;;;;11.05;4.60;;;16.00;62.30;;;;;;6163386;28;20034;-72
2023/01/03 11:40:10;;;;;;;8.48;5.00;;;16.00;61.80;;;;;;6136317;28;20532;-73
2023/01/03 11:43:34;;;;;;;11.98;5.65;;;16.00;61.70;;;;;;6147351;28;20035;-74
2023/01/03 11:46:58;;;;;;;9.52;4.60;;;16.00;61.90;;;;;;6133646;28;20467;-74
2023/01/03 11:50:14;;;;;;;19.67;11.80;;;16.10;62.00;;;;;;6122061;28;20038;-75
2023/01/03 11:53:21;;;;;;;9.45;5.18;;;16.20;61.80;;;;;;6137134;28;20035;-73
2023/01/03 11:56:33;;;;;;;9.18;4.20;;;16.30;61.40;;;;;;6133463;28;20046;-74
2023/01/03 12:00:10;;;;;;;9.80;4.50;;;16.40;61.20;;;;;;6137140;28;20039;-74
2023/01/03 12:03:46;;;;;;;7.22;3.97;;;16.40;61.10;;;;;;6073703;29;20040;-74
2023/01/03 12:06:59;;;;;;;8.73;4.15;;;16.50;60.80;;;;;;6041404;29;20037;-73
2023/01/03 12:10:03;;;;;;;7.60;4.07;;;16.50;60.50;;;;;;6025314;29;20044;-74
2023/01/03 12:13:08;;;;;;;6.68;3.80;;;16.60;60.40;;;;;;6045944;29;20137;-72
2023/01/03 12:16:51;;;;;;;6.68;3.78;;;16.60;60.30;;;;;;6040505;29;20041;-75
2023/01/03 12:20:01;;;;;;;8.13;3.92;;;16.70;60.20;;;;;;6043469;29;20044;-74
2023/01/03 12:23:20;;;;;;;9.25;3.58;;;16.80;59.90;;;;;;6052653;28;20440;-74
2023/01/03 12:26:23;;;;;;;;;;;16.80;59.70;;;;;;6104958;28;20348;-72
2023/01/03 12:29:32;;;;;;;4.57;2.80;;;16.90;59.60;;;;;;6100467;28;20276;-74
2023/01/03 12:32:50;;;;;;;9.27;3.08;;;16.90;59.10;;;;;;6107316;28;20761;-73
2023/01/03 12:35:56;;;;;;;5.88;2.53;;;16.90;59.00;;;;;;6092549;28;20107;-72
2023/01/03 12:39:06;;;;;;;6.25;3.25;;;16.90;58.90;;;;;;6154318;28;20038;-74
2023/01/03 12:42:30;;;;;;;5.45;2.65;;;16.90;58.80;;;;;;6198978;28;20187;-72
2023/01/03 12:45:40;;;;;;;8.43;3.90;;;16.90;58.70;;;;;;6231693;28;20462;-74
2023/01/03 12:49:15;;;;;;;7.88;3.78;;;16.90;58.60;;;;;;6219507;28;20441;-73
2023/01/03 12:52:20;;;;;;;6.97;3.17;;;16.90;58.60;;;;;;6153003;28;20039;-74
2023/01/03 12:55:33;;;;;;;12.40;4.40;;;17.00;58.50;;;;;;6154518;28;20087;-72
2023/01/03 12:58:59;;;;;;;12.75;6.22;;;17.10;58.60;;;;;;6148306;28;20041;-74
2023/01/03 13:02:34;;;;;;;6.07;3.40;;;17.20;58.50;;;;;;6157117;28;20619;-73
2023/01/03 13:06:02;;;;;;;12.80;5.38;;;17.20;58.30;;;;;;6099780;29;20414;-73
2023/01/03 13:09:30;;;;;;;11.60;5.60;;;17.20;58.30;;;;;;6098757;29;20560;-74
2023/01/03 13:12:34;;;;;;;14.38;5.75;;;17.20;58.30;;;;;;6084256;29;20090;-74
2023/01/03 13:15:35;;;;;;;10.77;5.50;;;17.20;58.30;;;;;;6103887;29;20478;-73
2023/01/03 13:18:36;;;;;;;14.82;6.25;;;17.30;58.30;;;;;;6102533;29;20147;-78
2023/01/03 13:21:52;;;;;;;17.00;7.15;;;17.30;58.30;;;;;;6100816;28;20050;-72
2023/01/03 13:24:53;;;;;;;19.15;7.63;;;17.30;58.30;;;;;;6099180;28;20648;-73
2023/01/03 13:28:24;;;;;;;17.17;7.63;;;17.40;58.30;;;;;;6144122;28;20562;-72
2023/01/03 13:31:37;;;;;;;15.52;7.45;;;17.50;58.30;;;;;;6170135;28;20405;-73
2023/01/03 13:34:37;;;;;;;15.85;7.38;;;17.50;58.20;;;;;;6153562;28;20550;-74
2023/01/03 13:37:50;;;;;;;15.52;7.97;;;17.50;58.10;;;;;;6177441;28;20043;-74
2023/01/03 13:40:56;;;;;;;18.13;7.45;;;17.40;58.10;;;;;;6177174;28;20424;-72
2023/01/03 13:44:07;;;;;;;17.80;8.70;;;17.30;58.10;;;;;;6233076;28;20049;-73
2023/01/03 13:47:22;;;;;;;18.55;7.95;;;17.30;58.20;;;;;;6212312;28;20446;-73
2023/01/03 13:50:26;;;;;;;17.02;8.25;;;17.30;58.30;;;;;;6235333;28;20069;-73
2023/01/03 13:53:30;;;;;;;11.18;5.75;;;17.20;58.30;;;;;;6219628;28;20443;-73
2023/01/03 13:56:53;;;;;;;11.82;5.93;;;17.20;58.90;;;;;;6236609;28;20045;-73
2023/01/03 13:59:57;;;;;;;11.25;4.20;;;17.20;58.40;;;;;;6219542;28;20071;-73
2023/01/03 14:03:07;;;;;;;8.52;2.65;;;17.20;58.20;;;;;;6206846;28;20079;-73
2023/01/03 14:06:14;;;;;;;7.38;2.53;;;17.20;58.00;;;;;;6234325;28;20049;-73
2023/01/03 14:09:15;;;;;;;16.08;3.22;;;17.10;57.90;;;;;;6232353;28;20049;-72
2023/01/03 14:12:22;;;;;;;7.93;3.15;;;17.00;57.70;;;;;;6238548;28;20029;-73
2023/01/03 14:15:24;;;;;;;5.85;3.65;;;17.10;57.80;;;;;;6227729;28;20038;-73
2023/01/03 14:18:28;;;;;;;4.55;2.33;;;16.90;57.60;;;;;;6232529;28;20120;-73
2023/01/03 14:21:40;;;;;;;9.57;2.92;;;16.90;57.70;;;;;;6215555;28;20045;-74
2023/01/03 14:24:55;;;;;;;4.38;2.80;;;16.80;57.60;;;;;;6235519;28;20056;-73
2023/01/03 14:27:58;;;;;;;3.92;2.42;;;16.80;57.60;;;;;;6232848;28;20107;-74
2023/01/03 14:31:06;;;;;;;6.60;2.70;;;16.80;57.50;;;;;;6236152;28;20088;-72
2023/01/03 14:34:20;;;;;;;5.75;2.58;;;16.70;57.60;;;;;;6210174;28;20054;-73
2023/01/03 14:37:24;;;;;;;4.75;2.70;;;16.70;57.60;;;;;;6235811;28;20041;-73
2023/01/03 14:40:25;;;;;;;15.50;4.90;;;16.60;57.60;;;;;;6243615;28;20041;-74
2023/01/03 14:43:29;;;;;;;12.02;5.38;;;16.70;57.80;;;;;;6245680;28;20091;-73
2023/01/03 14:46:31;;;;;;;13.52;5.40;;;16.70;57.90;;;;;;6243650;28;20102;-73
2023/01/03 14:49:37;;;;;;;6.63;3.40;;;16.70;58.10;;;;;;6242915;28;20056;-72
2023/01/03 14:52:41;;;;;;;5.25;2.95;;;16.70;58.00;;;;;;6239109;28;20044;-73
2023/01/03 14:55:50;;;;;;;7.55;2.83;;;16.70;58.00;;;;;;6225765;28;20041;-74
2023/01/03 14:58:51;;;;;;;15.20;5.00;;;16.70;57.90;;;;;;6237633;28;20148;-73
2023/01/03 15:01:52;;;;;;;6.43;3.38;;;16.70;57.80;;;;;;6241725;28;20037;-74
2023/01/03 15:04:55;;;;;;;7.13;4.03;;;16.60;57.90;;;;;;6240595;28;20673;-73
2023/01/03 15:08:30;;;;;;;8.73;3.97;;;16.60;58.00;;;;;;6241267;28;20030;-74
2023/01/03 15:11:54;;;;;;;7.28;3.50;;;16.50;58.10;;;;;;6215448;28;20112;-73
2023/01/03 15:14:55;;;;;;;6.53;3.03;;;16.50;58.10;;;;;;6214860;28;20033;-74
2023/01/03 15:18:01;;;;;;;10.30;4.60;;;16.40;58.00;;;;;;6214923;28;20037;-73
2023/01/03 15:21:04;;;;;;;10.43;5.43;;;16.40;58.00;;;;;;6219760;28;20116;-73
2023/01/03 15:24:13;;;;;;;15.68;5.70;;;16.30;58.30;;;;;;6239826;28;20079;-74
2023/01/03 15:27:38;;;;;;;7.90;4.20;;;16.30;58.60;;;;;;6238279;28;20091;-73
2023/01/03 15:30:48;;;;;;;9.30;4.93;;;16.30;58.70;;;;;;6228728;28;20086;-74
2023/01/03 15:34:27;;;;;;;9.38;5.22;;;16.30;58.80;;;;;;6238443;28;20336;-72
2023/01/03 15:37:28;;;;;;;7.75;3.90;;;16.30;59.00;;;;;;6202828;28;20112;-72
2023/01/03 15:40:30;;;;;;;7.45;3.70;;;16.20;58.90;;;;;;6236826;28;20033;-72
2023/01/03 15:43:36;;;;;;;5.88;3.88;;;16.20;58.60;;;;;;6240892;28;20043;-73
2023/01/03 15:46:43;;;;;;;5.00;3.53;;;16.10;58.60;;;;;;6236837;28;20064;-73
2023/01/03 15:49:47;;;;;;;5.80;3.65;;;16.00;58.60;;;;;;6240333;28;20033;-73
2023/01/03 15:52:48;;;;;;;10.13;4.95;;;16.00;58.60;;;;;;6224907;28;20053;-73
2023/01/03 15:55:52;;;;;;;6.93;3.80;;;16.00;58.60;;;;;;6231741;28;20083;-73
2023/01/03 15:58:55;;;;;;;6.32;3.40;;;16.10;58.60;;;;;;6239393;28;20037;-72
2023/01/03 16:01:56;;;;;;;10.27;3.72;;;16.10;58.50;;;;;;6241792;28;20033;-73
2023/01/03 16:04:57;;;;;;;6.65;4.15;;;16.10;58.50;;;;;;6240071;28;20060;-74
2023/01/03 16:07:58;;;;;;;8.65;3.83;;;16.00;58.40;;;;;;6240596;28;20033;-74
2023/01/03 16:11:01;;;;;;;9.45;4.25;;;16.00;58.50;;;;;;6243481;28;20417;-73
2023/01/03 16:14:05;;;;;;;7.07;3.63;;;16.00;58.50;;;;;;6234649;28;20061;-73
2023/01/03 16:17:11;;;;;;;7.00;3.55;;;16.00;58.60;;;;;;6237228;28;20128;-72
2023/01/03 16:20:16;;;;;;;9.02;4.03;;;16.00;58.50;;;;;;6223189;28;20018;-75
2023/01/03 16:23:27;;;;;;;8.02;3.72;;;16.00;58.50;;;;;;6230878;28;20033;-74
2023/01/03 16:26:27;;;;;;;6.75;3.90;;;15.90;58.50;;;;;;6214185;28;20045;-72
2023/01/03 16:29:28;;;;;;;6.88;3.55;;;15.90;58.50;;;;;;6215441;28;20041;-72
2023/01/03 16:32:31;;;;;;;6.75;3.70;;;15.90;58.50;;;;;;6212373;28;20113;-73
2023/01/03 16:35:32;;;;;;;5.88;3.33;;;15.90;58.50;;;;;;6212745;28;20025;-73
2023/01/03 16:38:33;;;;;;;5.60;3.40;;;15.80;58.40;;;;;;6233341;28;20052;-73
2023/01/03 16:41:34;;;;;;;11.40;3.85;;;15.80;58.50;;;;;;6235769;28;20152;-74
2023/01/03 16:44:36;;;;;;;7.03;3.72;;;15.80;58.50;;;;;;6238111;28;20049;-76
2023/01/03 16:47:38;;;;;;;6.40;3.50;;;15.80;58.60;;;;;;6238586;28;20036;-73
2023/01/03 16:50:39;;;;;;;8.25;3.80;;;15.80;58.60;;;;;;6237655;28;20033;-72
2023/01/03 16:53:40;;;;;;;10.65;3.80;;;15.80;58.60;;;;;;6241157;28;20434;-72
2023/01/03 16:56:42;;;;;;;5.95;3.47;;;15.80;59.20;;;;;;6225513;28;20042;-72
2023/01/03 16:59:44;;;;;;;6.47;3.78;;;15.80;58.50;;;;;;6211535;28;20034;-74
2023/01/03 17:02:46;;;;;;;7.65;3.83;;;15.80;58.50;;;;;;6200289;28;20034;-74
2023/01/03 17:05:49;;;;;;;6.07;3.97;;;15.90;58.50;;;;;;6232559;28;20049;-73
2023/01/03 17:08:50;;;;;;;9.65;3.55;;;15.90;58.50;;;;;;6238976;28;20030;-73